sensor_id;sensor_type;location;lat;lon;timestamp;temperature;humidity
7738;DHT22;29398;45.328;5.558;2023-04-09T00:00:28;9.70;83.70
7738;DHT22;29398;45.328;5.558;2023-04-09T00:01:30;9.50;82.80
7738;DHT22;29398;45.328;5.558;2023-04-09T00:02:32;9.60;83.70
7738;DHT22;29398;45.328;5.558;2023-04-09T00:03:35;9.50;83.10
7738;DHT22;29398;45.328;5.558;2023-04-09T00:04:36;9.70;84.70
7738;DHT22;29398;45.328;5.558;2023-04-09T00:05:38;9.70;85.00
7738;DHT22;29398;45.328;5.558;2023-04-09T00:06:39;9.70;86.20
7738;DHT22;29398;45.328;5.558;2023-04-09T00:07:42;9.70;85.30
7738;DHT22;29398;45.328;5.558;2023-04-09T00:08:43;9.50;83.00
7738;DHT22;29398;45.328;5.558;2023-04-09T00:09:45;9.50;82.90
7738;DHT22;29398;45.328;5.558;2023-04-09T00:10:46;9.40;82.90
7738;DHT22;29398;45.328;5.558;2023-04-09T00:11:48;9.50;83.80
7738;DHT22;29398;45.328;5.558;2023-04-09T00:12:50;9.50;84.80
7738;DHT22;29398;45.328;5.558;2023-04-09T00:13:52;9.40;87.70
7738;DHT22;29398;45.328;5.558;2023-04-09T00:14:54;9.30;83.60
7738;DHT22;29398;45.328;5.558;2023-04-09T00:15:56;9.20;83.50
7738;DHT22;29398;45.328;5.558;2023-04-09T00:16:57;9.20;83.70
7738;DHT22;29398;45.328;5.558;2023-04-09T00:17:59;9.20;84.10
7738;DHT22;29398;45.328;5.558;2023-04-09T00:19:00;9.20;84.40
7738;DHT22;29398;45.328;5.558;2023-04-09T00:20:02;9.20;84.10
7738;DHT22;29398;45.328;5.558;2023-04-09T00:21:04;9.20;84.30
7738;DHT22;29398;45.328;5.558;2023-04-09T00:22:08;9.20;84.40
7738;DHT22;29398;45.328;5.558;2023-04-09T00:23:09;9.20;85.30
7738;DHT22;29398;45.328;5.558;2023-04-09T00:24:11;9.20;84.20
7738;DHT22;29398;45.328;5.558;2023-04-09T00:25:12;9.20;84.30
7738;DHT22;29398;45.328;5.558;2023-04-09T00:26:14;9.20;84.30
7738;DHT22;29398;45.328;5.558;2023-04-09T00:27:16;9.30;83.90
7738;DHT22;29398;45.328;5.558;2023-04-09T00:28:19;9.30;84.40
7738;DHT22;29398;45.328;5.558;2023-04-09T00:29:20;9.30;83.70
7738;DHT22;29398;45.328;5.558;2023-04-09T00:30:22;9.20;83.60
7738;DHT22;29398;45.328;5.558;2023-04-09T00:31:24;9.20;83.70
7738;DHT22;29398;45.328;5.558;2023-04-09T00:32:26;9.30;83.80
7738;DHT22;29398;45.328;5.558;2023-04-09T00:33:27;9.20;84.10
7738;DHT22;29398;45.328;5.558;2023-04-09T00:34:29;9.30;83.80
7738;DHT22;29398;45.328;5.558;2023-04-09T00:35:30;9.30;83.60
7738;DHT22;29398;45.328;5.558;2023-04-09T00:36:32;9.20;83.90
7738;DHT22;29398;45.328;5.558;2023-04-09T00:37:33;8.60;83.70
7738;DHT22;29398;45.328;5.558;2023-04-09T00:38:35;9.20;83.70
7738;DHT22;29398;45.328;5.558;2023-04-09T00:39:37;9.20;83.90
7738;DHT22;29398;45.328;5.558;2023-04-09T00:40:39;9.20;84.00
7738;DHT22;29398;45.328;5.558;2023-04-09T00:41:40;9.20;84.10
7738;DHT22;29398;45.328;5.558;2023-04-09T00:42:42;9.20;84.20
7738;DHT22;29398;45.328;5.558;2023-04-09T00:43:45;9.20;84.90
7738;DHT22;29398;45.328;5.558;2023-04-09T00:44:47;9.20;84.80
7738;DHT22;29398;45.328;5.558;2023-04-09T00:45:48;9.10;84.80
7738;DHT22;29398;45.328;5.558;2023-04-09T00:46:51;9.10;85.30
7738;DHT22;29398;45.328;5.558;2023-04-09T00:47:52;9.10;86.00
7738;DHT22;29398;45.328;5.558;2023-04-09T00:48:55;9.20;85.80
7738;DHT22;29398;45.328;5.558;2023-04-09T00:49:56;9.20;85.60
7738;DHT22;29398;45.328;5.558;2023-04-09T00:50:58;9.20;85.90
7738;DHT22;29398;45.328;5.558;2023-04-09T00:51:59;9.20;85.90
7738;DHT22;29398;45.328;5.558;2023-04-09T00:53:02;9.20;86.10
7738;DHT22;29398;45.328;5.558;2023-04-09T00:54:03;9.20;86.40
7738;DHT22;29398;45.328;5.558;2023-04-09T00:55:07;9.20;86.50
7738;DHT22;29398;45.328;5.558;2023-04-09T00:56:10;9.20;86.80
7738;DHT22;29398;45.328;5.558;2023-04-09T00:57:13;9.20;86.90
7738;DHT22;29398;45.328;5.558;2023-04-09T00:58:15;9.20;87.20
7738;DHT22;29398;45.328;5.558;2023-04-09T00:59:19;9.20;87.20
7738;DHT22;29398;45.328;5.558;2023-04-09T01:00:20;9.20;86.70
7738;DHT22;29398;45.328;5.558;2023-04-09T01:01:22;9.20;86.80
7738;DHT22;29398;45.328;5.558;2023-04-09T01:02:23;9.30;86.70
7738;DHT22;29398;45.328;5.558;2023-04-09T01:03:25;9.30;86.80
7738;DHT22;29398;45.328;5.558;2023-04-09T01:04:26;9.30;86.80
7738;DHT22;29398;45.328;5.558;2023-04-09T01:05:33;9.30;86.70
7738;DHT22;29398;45.328;5.558;2023-04-09T01:06:41;9.30;86.70
7738;DHT22;29398;45.328;5.558;2023-04-09T01:07:54;9.30;87.30
7738;DHT22;29398;45.328;5.558;2023-04-09T01:09:02;9.30;86.90
7738;DHT22;29398;45.328;5.558;2023-04-09T01:10:10;9.30;86.80
7738;DHT22;29398;45.328;5.558;2023-04-09T01:11:19;9.30;86.50
7738;DHT22;29398;45.328;5.558;2023-04-09T01:12:32;9.40;86.80
7738;DHT22;29398;45.328;5.558;2023-04-09T01:13:38;9.40;86.40
7738;DHT22;29398;45.328;5.558;2023-04-09T01:14:48;9.40;86.40
7738;DHT22;29398;45.328;5.558;2023-04-09T01:15:56;9.30;86.20
7738;DHT22;29398;45.328;5.558;2023-04-09T01:17:03;9.30;86.50
7738;DHT22;29398;45.328;5.558;2023-04-09T01:18:09;9.30;86.70
7738;DHT22;29398;45.328;5.558;2023-04-09T01:19:22;9.30;86.70
7738;DHT22;29398;45.328;5.558;2023-04-09T01:20:33;9.30;86.90
7738;DHT22;29398;45.328;5.558;2023-04-09T01:21:35;9.20;87.20
7738;DHT22;29398;45.328;5.558;2023-04-09T01:22:48;9.20;87.40
7738;DHT22;29398;45.328;5.558;2023-04-09T01:24:06;9.10;87.40
7738;DHT22;29398;45.328;5.558;2023-04-09T01:25:21;9.10;87.80
7738;DHT22;29398;45.328;5.558;2023-04-09T01:26:44;9.10;87.80
7738;DHT22;29398;45.328;5.558;2023-04-09T01:29:22;9.10;88.20
7738;DHT22;29398;45.328;5.558;2023-04-09T01:30:25;9.10;87.90
7738;DHT22;29398;45.328;5.558;2023-04-09T01:31:31;9.10;87.80
7738;DHT22;29398;45.328;5.558;2023-04-09T01:32:34;9.00;88.10
7738;DHT22;29398;45.328;5.558;2023-04-09T01:33:38;9.10;88.30
7738;DHT22;29398;45.328;5.558;2023-04-09T01:34:40;9.00;88.50
7738;DHT22;29398;45.328;5.558;2023-04-09T01:35:45;9.00;88.60
7738;DHT22;29398;45.328;5.558;2023-04-09T01:36:51;9.00;88.40
7738;DHT22;29398;45.328;5.558;2023-04-09T01:37:54;9.00;88.60
7738;DHT22;29398;45.328;5.558;2023-04-09T01:38:56;9.00;88.20
7738;DHT22;29398;45.328;5.558;2023-04-09T01:39:58;8.90;88.30
7738;DHT22;29398;45.328;5.558;2023-04-09T01:41:00;8.90;88.40
7738;DHT22;29398;45.328;5.558;2023-04-09T01:42:03;8.90;88.20
7738;DHT22;29398;45.328;5.558;2023-04-09T01:43:09;8.90;88.50
7738;DHT22;29398;45.328;5.558;2023-04-09T01:44:12;9.00;88.40
7738;DHT22;29398;45.328;5.558;2023-04-09T01:45:15;9.00;88.30
7738;DHT22;29398;45.328;5.558;2023-04-09T01:46:18;9.00;87.90
7738;DHT22;29398;45.328;5.558;2023-04-09T01:47:20;9.10;87.90
7738;DHT22;29398;45.328;5.558;2023-04-09T01:48:23;9.10;88.60
7738;DHT22;29398;45.328;5.558;2023-04-09T01:49:25;9.10;87.70
7738;DHT22;29398;45.328;5.558;2023-04-09T01:50:28;9.10;87.50
7738;DHT22;29398;45.328;5.558;2023-04-09T01:51:30;9.10;87.70
7738;DHT22;29398;45.328;5.558;2023-04-09T01:52:33;9.00;87.90
7738;DHT22;29398;45.328;5.558;2023-04-09T01:53:34;9.10;87.90
7738;DHT22;29398;45.328;5.558;2023-04-09T01:54:37;9.00;87.70
7738;DHT22;29398;45.328;5.558;2023-04-09T01:55:39;9.10;87.60
7738;DHT22;29398;45.328;5.558;2023-04-09T01:56:42;8.90;87.70
7738;DHT22;29398;45.328;5.558;2023-04-09T01:57:44;9.00;88.20
7738;DHT22;29398;45.328;5.558;2023-04-09T01:58:46;8.90;88.10
7738;DHT22;29398;45.328;5.558;2023-04-09T01:59:47;8.80;88.10
7738;DHT22;29398;45.328;5.558;2023-04-09T02:00:55;8.80;88.10
7738;DHT22;29398;45.328;5.558;2023-04-09T02:02:03;8.80;88.30
7738;DHT22;29398;45.328;5.558;2023-04-09T02:03:09;8.70;88.50
7738;DHT22;29398;45.328;5.558;2023-04-09T02:04:16;8.70;88.70
7738;DHT22;29398;45.328;5.558;2023-04-09T02:05:23;8.70;88.70
7738;DHT22;29398;45.328;5.558;2023-04-09T02:06:33;8.70;88.90
7738;DHT22;29398;45.328;5.558;2023-04-09T02:07:38;8.70;88.80
7738;DHT22;29398;45.328;5.558;2023-04-09T02:08:44;8.60;88.70
7738;DHT22;29398;45.328;5.558;2023-04-09T02:09:47;8.60;88.50
7738;DHT22;29398;45.328;5.558;2023-04-09T02:10:54;8.60;88.70
7738;DHT22;29398;45.328;5.558;2023-04-09T02:11:58;8.60;88.80
7738;DHT22;29398;45.328;5.558;2023-04-09T02:13:01;8.60;88.90
7738;DHT22;29398;45.328;5.558;2023-04-09T02:14:06;8.60;88.70
7738;DHT22;29398;45.328;5.558;2023-04-09T02:15:08;8.60;88.50
7738;DHT22;29398;45.328;5.558;2023-04-09T02:16:13;8.60;88.50
7738;DHT22;29398;45.328;5.558;2023-04-09T02:17:15;8.50;88.20
7738;DHT22;29398;45.328;5.558;2023-04-09T02:18:22;8.50;88.40
7738;DHT22;29398;45.328;5.558;2023-04-09T02:19:23;8.50;88.20
7738;DHT22;29398;45.328;5.558;2023-04-09T02:20:26;8.50;88.40
7738;DHT22;29398;45.328;5.558;2023-04-09T02:21:28;8.50;88.20
7738;DHT22;29398;45.328;5.558;2023-04-09T02:22:31;8.50;88.10
7738;DHT22;29398;45.328;5.558;2023-04-09T02:23:33;8.50;88.70
7738;DHT22;29398;45.328;5.558;2023-04-09T02:24:35;8.50;88.40
7738;DHT22;29398;45.328;5.558;2023-04-09T02:25:36;8.40;88.40
7738;DHT22;29398;45.328;5.558;2023-04-09T02:26:38;8.40;88.50
7738;DHT22;29398;45.328;5.558;2023-04-09T02:27:40;8.50;88.50
7738;DHT22;29398;45.328;5.558;2023-04-09T02:28:42;8.60;88.50
7738;DHT22;29398;45.328;5.558;2023-04-09T02:29:43;8.60;88.50
7738;DHT22;29398;45.328;5.558;2023-04-09T02:30:46;8.40;87.70
7738;DHT22;29398;45.328;5.558;2023-04-09T02:31:49;8.30;87.10
7738;DHT22;29398;45.328;5.558;2023-04-09T02:32:53;8.40;88.00
7738;DHT22;29398;45.328;5.558;2023-04-09T02:33:54;8.40;88.10
7738;DHT22;29398;45.328;5.558;2023-04-09T02:34:56;8.40;88.10
7738;DHT22;29398;45.328;5.558;2023-04-09T02:35:57;8.40;88.40
7738;DHT22;29398;45.328;5.558;2023-04-09T02:36:59;8.40;88.40
7738;DHT22;29398;45.328;5.558;2023-04-09T02:38:00;8.40;87.80
7738;DHT22;29398;45.328;5.558;2023-04-09T02:39:03;8.40;88.20
7738;DHT22;29398;45.328;5.558;2023-04-09T02:40:04;8.30;87.90
7738;DHT22;29398;45.328;5.558;2023-04-09T02:41:07;8.30;87.90
7738;DHT22;29398;45.328;5.558;2023-04-09T02:42:08;8.30;88.30
7738;DHT22;29398;45.328;5.558;2023-04-09T02:43:10;8.30;88.50
7738;DHT22;29398;45.328;5.558;2023-04-09T02:44:11;8.30;88.30
7738;DHT22;29398;45.328;5.558;2023-04-09T02:45:14;8.30;88.30
7738;DHT22;29398;45.328;5.558;2023-04-09T02:46:15;8.30;88.50
7738;DHT22;29398;45.328;5.558;2023-04-09T02:47:19;8.30;88.60
7738;DHT22;29398;45.328;5.558;2023-04-09T02:48:20;8.30;88.90
7738;DHT22;29398;45.328;5.558;2023-04-09T02:49:22;8.30;89.30
7738;DHT22;29398;45.328;5.558;2023-04-09T02:50:23;8.40;89.20
7738;DHT22;29398;45.328;5.558;2023-04-09T02:51:27;8.30;89.50
7738;DHT22;29398;45.328;5.558;2023-04-09T02:52:28;8.30;89.40
7738;DHT22;29398;45.328;5.558;2023-04-09T02:53:30;8.30;89.40
7738;DHT22;29398;45.328;5.558;2023-04-09T02:54:31;8.30;89.20
7738;DHT22;29398;45.328;5.558;2023-04-09T02:55:33;8.30;89.20
7738;DHT22;29398;45.328;5.558;2023-04-09T02:56:34;8.30;89.30
7738;DHT22;29398;45.328;5.558;2023-04-09T02:57:36;8.30;89.10
7738;DHT22;29398;45.328;5.558;2023-04-09T02:58:37;8.30;89.20
7738;DHT22;29398;45.328;5.558;2023-04-09T02:59:39;8.40;88.90
7738;DHT22;29398;45.328;5.558;2023-04-09T03:00:40;8.40;89.20
7738;DHT22;29398;45.328;5.558;2023-04-09T03:01:43;8.40;89.10
7738;DHT22;29398;45.328;5.558;2023-04-09T03:02:45;8.40;89.40
7738;DHT22;29398;45.328;5.558;2023-04-09T03:03:48;8.30;88.80
7738;DHT22;29398;45.328;5.558;2023-04-09T03:04:49;8.30;88.50
7738;DHT22;29398;45.328;5.558;2023-04-09T03:05:52;8.30;88.50
7738;DHT22;29398;45.328;5.558;2023-04-09T03:06:53;8.30;88.50
7738;DHT22;29398;45.328;5.558;2023-04-09T03:07:56;8.30;88.70
7738;DHT22;29398;45.328;5.558;2023-04-09T03:08:59;8.20;88.50
7738;DHT22;29398;45.328;5.558;2023-04-09T03:10:02;8.20;88.90
7738;DHT22;29398;45.328;5.558;2023-04-09T03:11:03;8.20;89.10
7738;DHT22;29398;45.328;5.558;2023-04-09T03:12:05;8.20;89.10
7738;DHT22;29398;45.328;5.558;2023-04-09T03:13:06;8.20;89.30
7738;DHT22;29398;45.328;5.558;2023-04-09T03:14:08;8.20;89.40
7738;DHT22;29398;45.328;5.558;2023-04-09T03:15:09;8.20;89.30
7738;DHT22;29398;45.328;5.558;2023-04-09T03:16:11;8.20;89.40
7738;DHT22;29398;45.328;5.558;2023-04-09T03:17:13;8.20;89.30
7738;DHT22;29398;45.328;5.558;2023-04-09T03:18:16;8.20;89.50
7738;DHT22;29398;45.328;5.558;2023-04-09T03:19:17;8.10;89.20
7738;DHT22;29398;45.328;5.558;2023-04-09T03:20:19;8.20;89.50
7738;DHT22;29398;45.328;5.558;2023-04-09T03:21:20;8.20;89.80
7738;DHT22;29398;45.328;5.558;2023-04-09T03:23:27;8.20;89.20
7738;DHT22;29398;45.328;5.558;2023-04-09T03:24:34;8.20;89.50
7738;DHT22;29398;45.328;5.558;2023-04-09T03:25:39;8.20;89.30
7738;DHT22;29398;45.328;5.558;2023-04-09T03:26:46;8.20;89.60
7738;DHT22;29398;45.328;5.558;2023-04-09T03:27:49;8.20;89.80
7738;DHT22;29398;45.328;5.558;2023-04-09T03:28:59;8.20;89.30
7738;DHT22;29398;45.328;5.558;2023-04-09T03:30:00;8.10;89.60
7738;DHT22;29398;45.328;5.558;2023-04-09T03:31:10;8.10;89.90
7738;DHT22;29398;45.328;5.558;2023-04-09T03:32:13;8.10;90.00
7738;DHT22;29398;45.328;5.558;2023-04-09T03:33:17;8.10;89.90
7738;DHT22;29398;45.328;5.558;2023-04-09T03:34:25;8.10;90.20
7738;DHT22;29398;45.328;5.558;2023-04-09T03:35:30;8.10;90.40
7738;DHT22;29398;45.328;5.558;2023-04-09T03:36:33;8.10;90.30
7738;DHT22;29398;45.328;5.558;2023-04-09T03:37:44;8.10;90.30
7738;DHT22;29398;45.328;5.558;2023-04-09T03:38:50;8.10;90.30
7738;DHT22;29398;45.328;5.558;2023-04-09T03:40:07;8.20;90.30
7738;DHT22;29398;45.328;5.558;2023-04-09T03:41:09;8.20;90.30
7738;DHT22;29398;45.328;5.558;2023-04-09T03:42:10;8.20;90.50
7738;DHT22;29398;45.328;5.558;2023-04-09T03:43:19;8.20;90.40
7738;DHT22;29398;45.328;5.558;2023-04-09T03:44:25;8.20;90.50
7738;DHT22;29398;45.328;5.558;2023-04-09T03:45:39;8.20;90.40
7738;DHT22;29398;45.328;5.558;2023-04-09T03:46:55;8.30;90.40
7738;DHT22;29398;45.328;5.558;2023-04-09T03:47:58;8.20;90.50
7738;DHT22;29398;45.328;5.558;2023-04-09T03:49:01;8.20;90.30
7738;DHT22;29398;45.328;5.558;2023-04-09T03:50:14;8.20;90.30
7738;DHT22;29398;45.328;5.558;2023-04-09T03:51:23;8.20;90.30
7738;DHT22;29398;45.328;5.558;2023-04-09T03:52:30;8.20;90.30
7738;DHT22;29398;45.328;5.558;2023-04-09T03:53:36;8.30;90.30
7738;DHT22;29398;45.328;5.558;2023-04-09T03:54:40;8.20;90.20
7738;DHT22;29398;45.328;5.558;2023-04-09T03:55:47;8.20;90.10
7738;DHT22;29398;45.328;5.558;2023-04-09T03:56:56;8.20;90.20
7738;DHT22;29398;45.328;5.558;2023-04-09T03:57:58;8.20;90.30
7738;DHT22;29398;45.328;5.558;2023-04-09T03:59:05;8.20;90.20
7738;DHT22;29398;45.328;5.558;2023-04-09T04:00:12;8.20;90.20
7738;DHT22;29398;45.328;5.558;2023-04-09T04:01:46;8.20;90.20
7738;DHT22;29398;45.328;5.558;2023-04-09T04:02:48;8.10;90.30
7738;DHT22;29398;45.328;5.558;2023-04-09T04:03:51;8.10;90.30
7738;DHT22;29398;45.328;5.558;2023-04-09T04:05:00;8.00;90.40
7738;DHT22;29398;45.328;5.558;2023-04-09T04:06:05;7.90;90.40
7738;DHT22;29398;45.328;5.558;2023-04-09T04:07:18;7.80;90.50
7738;DHT22;29398;45.328;5.558;2023-04-09T04:08:26;7.80;90.80
7738;DHT22;29398;45.328;5.558;2023-04-09T04:09:27;7.80;90.80
7738;DHT22;29398;45.328;5.558;2023-04-09T04:10:38;7.80;90.80
7738;DHT22;29398;45.328;5.558;2023-04-09T04:11:39;7.70;90.60
7738;DHT22;29398;45.328;5.558;2023-04-09T04:12:44;7.80;90.90
7738;DHT22;29398;45.328;5.558;2023-04-09T04:13:55;7.70;90.80
7738;DHT22;29398;45.328;5.558;2023-04-09T04:14:58;7.60;90.80
7738;DHT22;29398;45.328;5.558;2023-04-09T04:16:08;7.70;91.00
7738;DHT22;29398;45.328;5.558;2023-04-09T04:17:11;7.70;90.90
7738;DHT22;29398;45.328;5.558;2023-04-09T04:18:13;7.70;91.00
7738;DHT22;29398;45.328;5.558;2023-04-09T04:19:18;7.70;91.00
7738;DHT22;29398;45.328;5.558;2023-04-09T04:20:25;7.70;90.90
7738;DHT22;29398;45.328;5.558;2023-04-09T04:21:35;7.70;90.90
7738;DHT22;29398;45.328;5.558;2023-04-09T04:22:37;7.70;90.90
7738;DHT22;29398;45.328;5.558;2023-04-09T04:23:39;7.70;90.80
7738;DHT22;29398;45.328;5.558;2023-04-09T04:24:59;7.70;90.60
7738;DHT22;29398;45.328;5.558;2023-04-09T04:26:06;7.70;91.00
7738;DHT22;29398;45.328;5.558;2023-04-09T04:27:11;7.90;90.80
7738;DHT22;29398;45.328;5.558;2023-04-09T04:28:12;7.70;90.60
7738;DHT22;29398;45.328;5.558;2023-04-09T04:29:16;7.80;90.80
7738;DHT22;29398;45.328;5.558;2023-04-09T04:30:24;7.80;90.70
7738;DHT22;29398;45.328;5.558;2023-04-09T04:31:33;7.70;90.60
7738;DHT22;29398;45.328;5.558;2023-04-09T04:32:35;7.70;90.60
7738;DHT22;29398;45.328;5.558;2023-04-09T04:33:41;7.70;90.60
7738;DHT22;29398;45.328;5.558;2023-04-09T04:34:48;7.70;90.60
7738;DHT22;29398;45.328;5.558;2023-04-09T04:36:04;7.70;90.50
7738;DHT22;29398;45.328;5.558;2023-04-09T04:37:12;7.60;90.90
7738;DHT22;29398;45.328;5.558;2023-04-09T04:38:14;7.60;90.60
7738;DHT22;29398;45.328;5.558;2023-04-09T04:39:16;7.70;90.60
7738;DHT22;29398;45.328;5.558;2023-04-09T04:40:25;7.70;90.50
7738;DHT22;29398;45.328;5.558;2023-04-09T04:41:32;7.70;90.50
7738;DHT22;29398;45.328;5.558;2023-04-09T04:42:57;7.60;90.50
7738;DHT22;29398;45.328;5.558;2023-04-09T04:43:58;7.60;90.60
7738;DHT22;29398;45.328;5.558;2023-04-09T04:45:01;7.60;90.50
7738;DHT22;29398;45.328;5.558;2023-04-09T04:46:22;7.60;90.60
7738;DHT22;29398;45.328;5.558;2023-04-09T04:47:24;7.60;90.60
7738;DHT22;29398;45.328;5.558;2023-04-09T04:48:25;7.50;90.70
7738;DHT22;29398;45.328;5.558;2023-04-09T04:49:29;7.50;90.80
7738;DHT22;29398;45.328;5.558;2023-04-09T04:50:31;6.00;90.50
7738;DHT22;29398;45.328;5.558;2023-04-09T04:51:44;7.40;90.90
7738;DHT22;29398;45.328;5.558;2023-04-09T04:52:48;7.40;91.10
7738;DHT22;29398;45.328;5.558;2023-04-09T04:53:49;7.40;91.10
7738;DHT22;29398;45.328;5.558;2023-04-09T04:54:52;7.40;91.20
7738;DHT22;29398;45.328;5.558;2023-04-09T04:55:56;7.40;91.10
7738;DHT22;29398;45.328;5.558;2023-04-09T04:57:00;7.40;91.00
7738;DHT22;29398;45.328;5.558;2023-04-09T04:58:14;7.40;91.10
7738;DHT22;29398;45.328;5.558;2023-04-09T04:59:20;7.40;91.20
7738;DHT22;29398;45.328;5.558;2023-04-09T05:00:32;7.40;91.20
7738;DHT22;29398;45.328;5.558;2023-04-09T05:01:36;7.40;91.20
7738;DHT22;29398;45.328;5.558;2023-04-09T05:02:42;7.40;91.40
7738;DHT22;29398;45.328;5.558;2023-04-09T05:04:12;7.40;91.50
7738;DHT22;29398;45.328;5.558;2023-04-09T05:05:14;7.40;91.50
7738;DHT22;29398;45.328;5.558;2023-04-09T05:06:21;7.40;91.40
7738;DHT22;29398;45.328;5.558;2023-04-09T05:07:25;7.50;91.40
7738;DHT22;29398;45.328;5.558;2023-04-09T05:08:29;7.50;91.50
7738;DHT22;29398;45.328;5.558;2023-04-09T05:09:32;7.50;91.60
7738;DHT22;29398;45.328;5.558;2023-04-09T05:10:40;7.50;91.60
7738;DHT22;29398;45.328;5.558;2023-04-09T05:11:43;7.50;91.50
7738;DHT22;29398;45.328;5.558;2023-04-09T05:12:50;7.50;91.70
7738;DHT22;29398;45.328;5.558;2023-04-09T05:14:00;7.50;91.50
7738;DHT22;29398;45.328;5.558;2023-04-09T05:15:01;7.50;91.60
7738;DHT22;29398;45.328;5.558;2023-04-09T05:16:05;7.50;91.80
7738;DHT22;29398;45.328;5.558;2023-04-09T05:17:07;7.50;91.60
7738;DHT22;29398;45.328;5.558;2023-04-09T05:18:16;7.70;91.80
7738;DHT22;29398;45.328;5.558;2023-04-09T05:19:19;7.50;91.70
7738;DHT22;29398;45.328;5.558;2023-04-09T05:20:20;7.60;91.90
7738;DHT22;29398;45.328;5.558;2023-04-09T05:21:38;7.60;91.90
7738;DHT22;29398;45.328;5.558;2023-04-09T05:22:42;7.60;91.60
7738;DHT22;29398;45.328;5.558;2023-04-09T05:23:43;7.60;91.50
7738;DHT22;29398;45.328;5.558;2023-04-09T05:24:45;7.60;91.50
7738;DHT22;29398;45.328;5.558;2023-04-09T05:25:47;7.70;91.60
7738;DHT22;29398;45.328;5.558;2023-04-09T05:27:08;7.70;91.60
7738;DHT22;29398;45.328;5.558;2023-04-09T05:28:09;7.80;91.80
7738;DHT22;29398;45.328;5.558;2023-04-09T05:29:14;7.80;91.50
7738;DHT22;29398;45.328;5.558;2023-04-09T05:30:17;7.80;91.50
7738;DHT22;29398;45.328;5.558;2023-04-09T05:31:20;7.80;91.40
7738;DHT22;29398;45.328;5.558;2023-04-09T05:32:38;7.80;91.60
7738;DHT22;29398;45.328;5.558;2023-04-09T05:33:41;7.80;91.70
7738;DHT22;29398;45.328;5.558;2023-04-09T05:34:50;7.90;91.60
7738;DHT22;29398;45.328;5.558;2023-04-09T05:35:53;7.90;91.50
7738;DHT22;29398;45.328;5.558;2023-04-09T05:36:54;7.90;91.50
7738;DHT22;29398;45.328;5.558;2023-04-09T05:37:59;8.00;91.60
7738;DHT22;29398;45.328;5.558;2023-04-09T05:39:01;8.00;91.40
7738;DHT22;29398;45.328;5.558;2023-04-09T05:40:05;8.00;91.60
7738;DHT22;29398;45.328;5.558;2023-04-09T05:41:07;8.00;91.50
7738;DHT22;29398;45.328;5.558;2023-04-09T05:42:11;8.00;91.30
7738;DHT22;29398;45.328;5.558;2023-04-09T05:43:24;8.00;91.30
7738;DHT22;29398;45.328;5.558;2023-04-09T05:44:27;8.10;91.40
7738;DHT22;29398;45.328;5.558;2023-04-09T05:45:35;8.10;91.20
7738;DHT22;29398;45.328;5.558;2023-04-09T05:46:37;8.10;91.30
7738;DHT22;29398;45.328;5.558;2023-04-09T05:47:38;8.10;91.40
7738;DHT22;29398;45.328;5.558;2023-04-09T05:48:53;8.10;91.40
7738;DHT22;29398;45.328;5.558;2023-04-09T05:49:55;8.10;91.20
7738;DHT22;29398;45.328;5.558;2023-04-09T05:50:57;8.20;91.20
7738;DHT22;29398;45.328;5.558;2023-04-09T05:52:00;8.20;91.10
7738;DHT22;29398;45.328;5.558;2023-04-09T05:53:07;8.30;90.60
7738;DHT22;29398;45.328;5.558;2023-04-09T05:54:13;8.20;90.80
7738;DHT22;29398;45.328;5.558;2023-04-09T05:55:15;8.30;91.10
7738;DHT22;29398;45.328;5.558;2023-04-09T05:56:25;8.30;91.10
7738;DHT22;29398;45.328;5.558;2023-04-09T05:57:30;8.30;91.10
7738;DHT22;29398;45.328;5.558;2023-04-09T05:58:36;10.20;91.50
7738;DHT22;29398;45.328;5.558;2023-04-09T05:59:37;8.30;91.10
7738;DHT22;29398;45.328;5.558;2023-04-09T06:00:40;8.30;91.20
7738;DHT22;29398;45.328;5.558;2023-04-09T06:01:41;8.30;91.10
7738;DHT22;29398;45.328;5.558;2023-04-09T06:02:43;10.10;91.50
7738;DHT22;29398;45.328;5.558;2023-04-09T06:03:44;8.40;91.00
7738;DHT22;29398;45.328;5.558;2023-04-09T06:04:46;8.40;91.00
7738;DHT22;29398;45.328;5.558;2023-04-09T06:05:49;8.50;91.10
7738;DHT22;29398;45.328;5.558;2023-04-09T06:06:51;8.50;91.10
7738;DHT22;29398;45.328;5.558;2023-04-09T06:07:52;8.50;91.10
7738;DHT22;29398;45.328;5.558;2023-04-09T06:08:56;8.50;90.80
7738;DHT22;29398;45.328;5.558;2023-04-09T06:09:58;8.50;90.90
7738;DHT22;29398;45.328;5.558;2023-04-09T06:11:00;8.60;91.00
7738;DHT22;29398;45.328;5.558;2023-04-09T06:12:03;8.60;91.10
7738;DHT22;29398;45.328;5.558;2023-04-09T06:13:04;8.60;91.10
7738;DHT22;29398;45.328;5.558;2023-04-09T06:14:06;7.70;90.40
7738;DHT22;29398;45.328;5.558;2023-04-09T06:15:09;8.60;91.00
7738;DHT22;29398;45.328;5.558;2023-04-09T06:16:10;8.70;91.10
7738;DHT22;29398;45.328;5.558;2023-04-09T06:17:12;8.70;91.00
7738;DHT22;29398;45.328;5.558;2023-04-09T06:18:13;8.70;90.70
7738;DHT22;29398;45.328;5.558;2023-04-09T06:19:15;8.80;90.50
7738;DHT22;29398;45.328;5.558;2023-04-09T06:20:17;8.80;90.80
7738;DHT22;29398;45.328;5.558;2023-04-09T06:21:19;8.80;90.20
7738;DHT22;29398;45.328;5.558;2023-04-09T06:22:20;8.80;90.10
7738;DHT22;29398;45.328;5.558;2023-04-09T06:23:22;8.90;90.40
7738;DHT22;29398;45.328;5.558;2023-04-09T06:24:25;8.90;90.20
7738;DHT22;29398;45.328;5.558;2023-04-09T06:25:27;9.00;90.10
7738;DHT22;29398;45.328;5.558;2023-04-09T06:26:28;9.10;89.80
7738;DHT22;29398;45.328;5.558;2023-04-09T06:27:30;9.10;89.60
7738;DHT22;29398;45.328;5.558;2023-04-09T06:28:31;9.20;90.10
7738;DHT22;29398;45.328;5.558;2023-04-09T06:29:33;9.20;90.00
7738;DHT22;29398;45.328;5.558;2023-04-09T06:30:34;9.20;88.50
7738;DHT22;29398;45.328;5.558;2023-04-09T06:31:36;9.30;89.80
7738;DHT22;29398;45.328;5.558;2023-04-09T06:32:37;9.30;89.90
7738;DHT22;29398;45.328;5.558;2023-04-09T06:33:39;9.40;89.80
7738;DHT22;29398;45.328;5.558;2023-04-09T06:34:41;9.50;90.10
7738;DHT22;29398;45.328;5.558;2023-04-09T06:35:43;9.50;89.70
7738;DHT22;29398;45.328;5.558;2023-04-09T06:36:44;9.60;89.20
7738;DHT22;29398;45.328;5.558;2023-04-09T06:37:46;9.60;87.90
7738;DHT22;29398;45.328;5.558;2023-04-09T06:38:48;9.60;86.70
7738;DHT22;29398;45.328;5.558;2023-04-09T06:39:50;9.60;88.00
7738;DHT22;29398;45.328;5.558;2023-04-09T06:40:54;9.60;87.10
7738;DHT22;29398;45.328;5.558;2023-04-09T06:41:56;9.60;87.50
7738;DHT22;29398;45.328;5.558;2023-04-09T06:43:08;9.60;87.10
7738;DHT22;29398;45.328;5.558;2023-04-09T06:44:17;9.60;87.20
7738;DHT22;29398;45.328;5.558;2023-04-09T06:45:19;9.60;86.50
7738;DHT22;29398;45.328;5.558;2023-04-09T06:46:21;9.60;87.00
7738;DHT22;29398;45.328;5.558;2023-04-09T06:47:23;9.60;86.10
7738;DHT22;29398;45.328;5.558;2023-04-09T06:48:24;9.50;85.10
7738;DHT22;29398;45.328;5.558;2023-04-09T06:49:26;9.60;86.50
7738;DHT22;29398;45.328;5.558;2023-04-09T06:50:27;9.60;87.20
7738;DHT22;29398;45.328;5.558;2023-04-09T06:51:29;9.70;86.50
7738;DHT22;29398;45.328;5.558;2023-04-09T06:52:31;9.70;86.90
7738;DHT22;29398;45.328;5.558;2023-04-09T06:53:32;9.70;86.40
7738;DHT22;29398;45.328;5.558;2023-04-09T06:54:34;9.70;85.90
7738;DHT22;29398;45.328;5.558;2023-04-09T06:55:37;9.80;85.80
7738;DHT22;29398;45.328;5.558;2023-04-09T06:56:39;9.90;86.40
7738;DHT22;29398;45.328;5.558;2023-04-09T06:57:41;9.90;86.80
7738;DHT22;29398;45.328;5.558;2023-04-09T06:58:43;9.90;85.80
7738;DHT22;29398;45.328;5.558;2023-04-09T06:59:44;9.90;85.80
7738;DHT22;29398;45.328;5.558;2023-04-09T07:00:46;10.00;86.70
7738;DHT22;29398;45.328;5.558;2023-04-09T07:01:48;10.10;86.90